createdAt,value
2018-06-15T00:01:12.561Z,17.70
2018-06-15T00:03:41.644Z,17.70
2018-06-15T00:06:10.723Z,17.70
2018-06-15T00:08:39.833Z,17.60
2018-06-15T00:11:08.935Z,17.70
2018-06-15T00:13:38.022Z,17.70
2018-06-15T00:16:07.091Z,17.70
2018-06-15T00:18:36.180Z,17.70
2018-06-15T00:21:05.266Z,17.70
2018-06-15T00:23:34.357Z,17.70
2018-06-15T00:26:03.463Z,17.70
2018-06-15T00:28:32.551Z,17.60
2018-06-15T00:31:01.834Z,17.60
2018-06-15T00:33:30.954Z,17.60
2018-06-15T00:36:00.032Z,17.50
2018-06-15T00:38:29.135Z,17.50
2018-06-15T00:40:58.218Z,17.40
2018-06-15T00:43:27.287Z,17.50
2018-06-15T00:45:56.352Z,17.40
2018-06-15T00:48:25.599Z,17.50
2018-06-15T00:50:54.682Z,17.40
2018-06-15T00:53:23.761Z,17.50
2018-06-15T00:55:52.821Z,17.50
2018-06-15T00:58:21.901Z,17.50
2018-06-15T01:00:51.080Z,17.50
2018-06-15T01:03:20.213Z,17.50
2018-06-15T01:05:49.311Z,17.60
2018-06-15T01:08:18.382Z,17.60
2018-06-15T01:10:47.478Z,17.60
2018-06-15T01:13:16.563Z,17.70
2018-06-15T01:15:45.627Z,17.70
2018-06-15T01:18:14.685Z,17.60
2018-06-15T01:20:43.810Z,17.60
2018-06-15T01:23:12.943Z,17.60
2018-06-15T01:25:42.040Z,17.60
2018-06-15T01:28:11.107Z,17.50
2018-06-15T01:33:08.883Z,17.50
2018-06-15T01:35:37.967Z,17.50
2018-06-15T01:38:07.024Z,17.60
2018-06-15T01:40:36.091Z,17.60
2018-06-15T01:43:05.190Z,17.60
2018-06-15T01:45:34.224Z,17.60
2018-06-15T01:48:03.294Z,17.60
2018-06-15T01:50:32.352Z,17.60
2018-06-15T01:53:01.414Z,17.70
2018-06-15T01:55:30.547Z,17.70
2018-06-15T01:57:59.663Z,17.70
2018-06-15T02:00:28.763Z,17.70
2018-06-15T02:02:57.852Z,17.80
2018-06-15T02:05:26.971Z,17.80
2018-06-15T02:07:56.052Z,17.80
2018-06-15T02:10:25.132Z,17.80
2018-06-15T02:12:56.328Z,17.80
2018-06-15T02:15:25.419Z,17.70
2018-06-15T02:17:54.491Z,17.70
2018-06-15T02:20:23.599Z,17.50
2018-06-15T02:22:52.666Z,17.40
2018-06-15T02:25:21.746Z,17.40
2018-06-15T02:27:50.814Z,17.40
2018-06-15T02:30:19.907Z,17.30
2018-06-15T02:32:48.970Z,17.20
2018-06-15T02:35:18.093Z,17.10
2018-06-15T02:37:47.175Z,17.10
2018-06-15T02:40:16.298Z,17.10
2018-06-15T02:42:45.403Z,16.90
2018-06-15T02:45:14.518Z,16.90
2018-06-15T02:47:43.569Z,16.70
2018-06-15T02:50:12.655Z,16.60
2018-06-15T02:52:41.741Z,16.50
2018-06-15T02:55:13.284Z,16.60
2018-06-15T02:57:42.407Z,16.60
2018-06-15T03:00:11.447Z,16.50
2018-06-15T03:02:40.539Z,16.40
2018-06-15T03:05:09.624Z,16.40
2018-06-15T03:10:07.365Z,16.40
2018-06-15T03:12:36.476Z,16.40
2018-06-15T03:15:05.899Z,16.40
2018-06-15T03:17:35.091Z,16.40
2018-06-15T03:20:04.405Z,16.40
2018-06-15T03:22:33.477Z,16.40
2018-06-15T03:25:02.611Z,16.40
2018-06-15T03:27:32.072Z,16.40
2018-06-15T03:30:01.133Z,16.40
2018-06-15T03:32:30.223Z,16.40
2018-06-15T03:34:59.510Z,16.30
2018-06-15T03:37:28.595Z,16.30
2018-06-15T03:39:57.698Z,16.20
2018-06-15T03:42:26.784Z,16.20
2018-06-15T03:44:55.867Z,16.20
2018-06-15T03:47:24.970Z,16.20
2018-06-15T03:49:54.020Z,16.30
2018-06-15T03:52:23.067Z,16.30
2018-06-15T03:54:52.158Z,16.30
2018-06-15T03:57:21.208Z,16.40
2018-06-15T03:59:50.299Z,16.40
2018-06-15T04:02:19.367Z,16.50
2018-06-15T04:04:48.440Z,16.60
2018-06-15T04:07:17.524Z,16.60
2018-06-15T04:09:46.578Z,16.70
2018-06-15T04:12:15.673Z,16.70
2018-06-15T04:14:44.746Z,16.70
2018-06-15T04:17:13.827Z,16.60
2018-06-15T04:19:42.946Z,16.70
2018-06-15T04:22:12.027Z,16.70
2018-06-15T04:24:41.071Z,16.80
2018-06-15T04:27:10.180Z,16.80
2018-06-15T04:32:08.164Z,16.60
2018-06-15T04:34:37.243Z,16.60
2018-06-15T04:37:06.335Z,16.60
2018-06-15T04:39:35.460Z,16.60
2018-06-15T04:42:04.550Z,16.70
2018-06-15T04:44:33.955Z,16.80
2018-06-15T04:47:03.052Z,17.00
2018-06-15T04:49:32.119Z,17.00
2018-06-15T04:54:30.119Z,17.00
2018-06-15T04:56:59.188Z,17.00
2018-06-15T04:59:28.595Z,17.00
2018-06-15T05:01:57.663Z,17.10
2018-06-15T05:04:26.726Z,17.10
2018-06-15T05:06:55.792Z,17.10
2018-06-15T05:09:24.825Z,17.10
2018-06-15T05:11:53.936Z,17.10
2018-06-15T05:14:23.035Z,17.30
2018-06-15T05:16:52.103Z,17.40
2018-06-15T05:19:21.252Z,17.50
2018-06-15T05:21:50.343Z,17.70
2018-06-15T05:24:19.419Z,17.80
2018-06-15T05:26:48.544Z,17.90
2018-06-15T05:29:17.623Z,17.90
2018-06-15T05:31:46.675Z,17.90
2018-06-15T05:34:15.743Z,17.90
2018-06-15T05:39:13.548Z,18.00
2018-06-15T05:41:42.700Z,18.10
2018-06-15T05:44:11.815Z,18.10
2018-06-15T05:46:40.875Z,18.20
2018-06-15T05:49:09.966Z,18.20
2018-06-15T05:51:39.023Z,18.20
2018-06-15T05:54:08.104Z,18.30
2018-06-15T05:56:37.406Z,18.20
2018-06-15T05:59:06.487Z,18.40
2018-06-15T06:01:35.574Z,18.40
2018-06-15T06:04:04.844Z,18.40
2018-06-15T06:06:33.842Z,18.40
2018-06-15T06:09:03.023Z,18.30
2018-06-15T06:11:32.184Z,18.30
2018-06-15T06:14:01.272Z,18.40
2018-06-15T06:18:59.099Z,18.60
2018-06-15T06:21:28.222Z,18.70
2018-06-15T06:23:57.554Z,18.60
2018-06-15T06:26:26.721Z,18.50
2018-06-15T06:28:55.815Z,18.30
2018-06-15T06:31:24.863Z,18.30
2018-06-15T06:33:53.963Z,18.30
2018-06-15T06:36:23.057Z,18.50
2018-06-15T06:38:52.155Z,18.60
2018-06-15T06:41:21.649Z,18.70
2018-06-15T06:43:50.775Z,18.80
2018-06-15T06:46:19.869Z,18.90
2018-06-15T06:48:48.983Z,19.00
2018-06-15T06:51:18.059Z,19.10
2018-06-15T06:53:47.171Z,19.10
2018-06-15T06:56:16.263Z,19.30
2018-06-15T06:58:45.347Z,19.40
2018-06-15T07:01:14.461Z,19.50
2018-06-15T07:03:43.508Z,19.70
2018-06-15T07:06:12.641Z,20.00
2018-06-15T07:08:41.909Z,20.00
2018-06-15T07:11:10.992Z,20.20
2018-06-15T07:13:40.191Z,20.40
2018-06-15T07:16:09.291Z,20.60
2018-06-15T07:18:38.382Z,20.50
2018-06-15T07:21:07.494Z,20.50
2018-06-15T07:23:36.628Z,20.50
2018-06-15T07:26:05.717Z,20.40
2018-06-15T07:28:34.795Z,20.60
2018-06-15T07:31:03.939Z,20.80
2018-06-15T07:33:33.073Z,20.90
2018-06-15T07:36:02.124Z,21.00
2018-06-15T07:38:31.200Z,21.00
2018-06-15T07:41:00.415Z,20.80
2018-06-15T07:43:29.487Z,20.80
2018-06-15T07:45:58.635Z,20.90
2018-06-15T07:48:27.718Z,21.00
2018-06-15T07:50:56.831Z,21.00
2018-06-15T07:53:25.935Z,20.50
2018-06-15T07:55:54.984Z,20.60
2018-06-15T07:58:24.063Z,20.60
2018-06-15T08:00:53.151Z,20.70
2018-06-15T08:03:22.244Z,20.80
2018-06-15T08:05:51.337Z,21.00
2018-06-15T08:08:20.468Z,21.20
2018-06-15T08:10:49.564Z,21.30
2018-06-15T08:13:18.658Z,21.50
2018-06-15T08:15:47.738Z,21.70
2018-06-15T08:18:16.770Z,21.80
2018-06-15T08:20:45.851Z,21.80
2018-06-15T08:23:14.928Z,22.00
2018-06-15T08:25:44.011Z,22.40
2018-06-15T08:28:13.084Z,22.70
2018-06-15T08:30:42.215Z,23.00
2018-06-15T08:33:11.286Z,23.00
2018-06-15T08:35:40.372Z,22.70
2018-06-15T08:38:09.443Z,22.70
2018-06-15T08:40:38.563Z,23.00
2018-06-15T08:43:07.758Z,23.30
2018-06-15T08:45:36.844Z,23.10
2018-06-15T08:48:05.920Z,22.90
2018-06-15T08:50:35.025Z,22.70
2018-06-15T08:53:04.195Z,22.70
2018-06-15T08:55:33.370Z,22.80
2018-06-15T08:58:02.445Z,22.70
2018-06-15T09:00:31.515Z,22.60
2018-06-15T09:03:00.644Z,22.20
2018-06-15T09:05:29.711Z,21.70
2018-06-15T09:07:58.893Z,21.10
2018-06-15T09:10:28.084Z,20.70
2018-06-15T09:12:57.149Z,20.60
2018-06-15T09:15:26.279Z,20.50
2018-06-15T09:17:55.382Z,20.50
2018-06-15T09:20:24.474Z,20.60
2018-06-15T09:22:53.558Z,20.70
2018-06-15T09:25:22.648Z,20.70
2018-06-15T09:27:51.721Z,20.60
2018-06-15T09:30:20.798Z,20.60
2018-06-15T09:32:49.895Z,20.70
2018-06-15T09:35:19.009Z,20.70
2018-06-15T09:37:48.201Z,20.70
2018-06-15T09:40:17.503Z,20.90
2018-06-15T09:42:46.590Z,21.10
2018-06-15T09:45:15.659Z,21.20
2018-06-15T09:47:44.816Z,21.30
2018-06-15T09:50:13.959Z,21.40
2018-06-15T09:52:43.051Z,21.40
2018-06-15T09:55:12.176Z,21.40
2018-06-15T09:57:41.343Z,21.40
2018-06-15T10:00:10.419Z,21.40
2018-06-15T10:02:39.570Z,21.60
2018-06-15T10:05:08.663Z,21.70
2018-06-15T10:07:37.769Z,21.40
2018-06-15T10:10:06.868Z,21.60
2018-06-15T10:12:35.963Z,21.80
2018-06-15T10:20:03.083Z,22.70
2018-06-15T10:22:32.206Z,22.70
2018-06-15T10:25:01.304Z,22.50
2018-06-15T10:27:30.383Z,22.70
2018-06-15T10:29:59.467Z,23.20
2018-06-15T10:32:28.627Z,24.10
2018-06-15T10:34:57.787Z,24.00
2018-06-15T10:37:26.904Z,24.40
2018-06-15T10:39:56.094Z,24.70
2018-06-15T10:42:25.188Z,24.80
2018-06-15T10:44:54.264Z,24.70
2018-06-15T10:47:23.390Z,24.80
2018-06-15T10:49:52.671Z,25.10
2018-06-15T10:52:21.833Z,25.50
2018-06-15T10:54:50.936Z,25.70
2018-06-15T10:57:20.004Z,26.00
2018-06-15T10:59:49.106Z,26.30
2018-06-15T11:02:18.276Z,26.30
2018-06-15T11:04:47.294Z,26.10
2018-06-15T11:07:17.339Z,25.70
2018-06-15T11:09:46.455Z,25.70
2018-06-15T11:12:15.587Z,25.40
2018-06-15T11:14:44.699Z,24.70
2018-06-15T11:17:13.840Z,24.10
2018-06-15T11:19:42.976Z,23.60
2018-06-15T11:22:12.071Z,23.40
2018-06-15T11:24:41.162Z,23.40
2018-06-15T11:27:10.280Z,23.70
2018-06-15T11:29:39.383Z,24.10
2018-06-15T11:32:08.531Z,24.70
2018-06-15T11:34:37.639Z,25.10
2018-06-15T11:37:06.790Z,25.40
2018-06-15T11:39:35.860Z,25.70
2018-06-15T11:42:05.012Z,25.90
2018-06-15T11:44:34.097Z,26.00
2018-06-15T11:47:03.236Z,25.70
2018-06-15T11:52:01.059Z,26.00
2018-06-15T11:54:30.175Z,26.20
2018-06-15T11:56:59.267Z,26.30
2018-06-15T11:59:28.331Z,26.20
2018-06-15T12:01:57.434Z,26.50
2018-06-15T12:04:26.543Z,26.80
2018-06-15T12:06:55.627Z,27.20
2018-06-15T12:09:24.707Z,27.30
2018-06-15T12:11:53.823Z,27.60
2018-06-15T12:14:22.935Z,27.70
2018-06-15T12:19:20.744Z,27.90
2018-06-15T12:21:49.869Z,27.90
2018-06-15T12:24:18.980Z,27.90
2018-06-15T12:26:48.047Z,28.00
2018-06-15T12:29:17.149Z,28.20
2018-06-15T12:31:46.223Z,28.30
2018-06-15T12:34:15.385Z,28.30
2018-06-15T12:36:44.459Z,28.50
2018-06-15T12:39:13.606Z,28.50
2018-06-15T12:41:42.767Z,28.40
2018-06-15T12:44:11.845Z,28.30
2018-06-15T12:46:40.926Z,28.30
2018-06-15T12:49:10.128Z,27.90
2018-06-15T12:51:39.291Z,27.80
2018-06-15T12:54:08.415Z,27.90
2018-06-15T12:56:37.488Z,27.80
2018-06-15T12:59:06.596Z,27.20
2018-06-15T13:01:35.686Z,26.90
2018-06-15T13:04:04.821Z,27.00
2018-06-15T13:06:34.085Z,27.20
2018-06-15T13:09:03.241Z,27.60
2018-06-15T13:11:32.345Z,27.80
2018-06-15T13:14:01.431Z,28.00
2018-06-15T13:16:30.562Z,28.20
2018-06-15T13:18:59.651Z,28.40
2018-06-15T13:21:28.771Z,28.50
2018-06-15T13:23:58.567Z,28.60
2018-06-15T13:26:27.715Z,28.60
2018-06-15T13:28:56.904Z,28.50
2018-06-15T13:31:26.101Z,28.40
2018-06-15T13:33:55.285Z,28.40
2018-06-15T13:36:24.771Z,28.60
2018-06-15T13:38:53.935Z,28.70
2018-06-15T13:41:23.095Z,28.40
2018-06-15T13:43:52.239Z,28.30
2018-06-15T13:46:21.363Z,28.30
2018-06-15T13:48:50.451Z,28.40
2018-06-15T13:51:19.525Z,28.40
2018-06-15T13:53:48.637Z,28.20
2018-06-15T13:56:17.772Z,28.20
2018-06-15T13:58:46.991Z,28.40
2018-06-15T14:01:16.116Z,28.30
2018-06-15T14:03:45.201Z,28.00
2018-06-15T14:06:14.347Z,27.90
2018-06-15T14:08:43.505Z,28.00
2018-06-15T14:11:12.634Z,28.10
2018-06-15T14:13:41.698Z,28.10
2018-06-15T14:16:10.879Z,27.90
2018-06-15T14:18:40.000Z,27.90
2018-06-15T14:21:09.068Z,28.00
2018-06-15T14:23:38.211Z,28.20
2018-06-15T14:26:07.290Z,28.30
2018-06-15T14:28:36.358Z,28.50
2018-06-15T14:31:05.460Z,28.40
2018-06-15T14:33:34.556Z,28.50
2018-06-15T14:36:03.828Z,28.60
2018-06-15T14:38:32.970Z,28.90
2018-06-15T14:41:02.051Z,29.10
2018-06-15T14:43:31.103Z,29.10
2018-06-15T14:46:00.271Z,28.90
2018-06-15T14:48:29.363Z,28.80
2018-06-15T14:50:58.467Z,28.70
2018-06-15T14:53:27.543Z,28.60
2018-06-15T14:55:56.639Z,28.50
2018-06-15T14:58:25.731Z,28.50
2018-06-15T15:00:54.837Z,28.50
2018-06-15T15:03:23.903Z,28.50
2018-06-15T15:08:21.672Z,29.10
2018-06-15T15:10:50.776Z,29.40
2018-06-15T15:13:19.936Z,29.90
2018-06-15T15:15:49.022Z,30.00
2018-06-15T15:18:18.142Z,30.40
2018-06-15T15:20:47.192Z,31.10
2018-06-15T15:23:16.491Z,31.70
2018-06-15T15:25:46.208Z,32.50
2018-06-15T15:28:15.293Z,33.30
2018-06-15T15:30:44.387Z,34.20
2018-06-15T15:33:13.435Z,34.60
2018-06-15T15:35:42.582Z,34.40
2018-06-15T15:38:11.678Z,34.10
2018-06-15T15:40:40.815Z,33.60
2018-06-15T15:43:09.941Z,33.30
2018-06-15T15:45:39.310Z,33.70
2018-06-15T15:48:08.403Z,34.10
2018-06-15T15:50:37.508Z,34.40
2018-06-15T15:53:06.566Z,34.10
2018-06-15T15:55:35.690Z,33.90
2018-06-15T15:58:04.798Z,33.20
2018-06-15T16:00:33.874Z,32.50
2018-06-15T16:03:02.931Z,32.50
2018-06-15T16:05:32.042Z,32.50
2018-06-15T16:08:01.114Z,32.60
2018-06-15T16:10:30.180Z,32.80
2018-06-15T16:12:59.279Z,33.10
2018-06-15T16:15:28.355Z,33.50
2018-06-15T16:17:57.428Z,33.60
2018-06-15T16:20:26.502Z,34.20
2018-06-15T16:22:55.603Z,34.20
2018-06-15T16:25:24.667Z,34.90
2018-06-15T16:27:53.740Z,35.40
2018-06-15T16:30:22.807Z,35.90
2018-06-15T16:32:51.908Z,35.70
2018-06-15T16:35:20.984Z,35.30
2018-06-15T16:37:50.051Z,35.00
2018-06-15T16:40:19.191Z,34.70
2018-06-15T16:42:48.269Z,34.50
2018-06-15T16:45:17.347Z,34.30
2018-06-15T16:47:46.486Z,33.90
2018-06-15T16:50:15.587Z,33.90
2018-06-15T16:52:44.672Z,34.40
2018-06-15T16:55:13.775Z,34.90
2018-06-15T16:57:42.843Z,35.70
2018-06-15T17:00:11.914Z,36.70
2018-06-15T17:02:40.991Z,37.20
2018-06-15T17:05:10.099Z,37.20
2018-06-15T17:07:39.191Z,36.70
2018-06-15T17:10:08.238Z,35.90
2018-06-15T17:12:37.334Z,35.00
2018-06-15T17:15:06.410Z,33.90
2018-06-15T17:17:35.496Z,33.50
2018-06-15T17:20:04.650Z,33.40
2018-06-15T17:22:33.720Z,33.60
2018-06-15T17:25:02.825Z,33.30
2018-06-15T17:27:32.100Z,32.70
2018-06-15T17:30:01.364Z,32.10
2018-06-15T17:32:30.598Z,31.40
2018-06-15T17:34:59.988Z,30.60
2018-06-15T17:37:29.088Z,29.80
2018-06-15T17:39:58.189Z,29.10
2018-06-15T17:42:27.335Z,28.60
2018-06-15T17:44:56.519Z,28.20
2018-06-15T17:47:25.603Z,28.00
2018-06-15T17:49:54.689Z,27.80
2018-06-15T17:52:23.768Z,27.60
2018-06-15T17:54:53.100Z,27.50
2018-06-15T17:57:22.187Z,27.20
2018-06-15T17:59:51.374Z,27.00
2018-06-15T18:02:20.376Z,26.90
2018-06-15T18:04:49.463Z,26.60
2018-06-15T18:07:18.559Z,26.30
2018-06-15T18:09:47.899Z,26.20
2018-06-15T18:12:16.979Z,26.00
2018-06-15T18:14:46.115Z,25.80
2018-06-15T18:17:15.206Z,25.60
2018-06-15T18:19:44.280Z,25.50
2018-06-15T18:22:13.712Z,25.40
2018-06-15T18:24:42.785Z,25.30
2018-06-15T18:27:11.870Z,25.10
2018-06-15T18:29:40.920Z,24.90
2018-06-15T18:32:09.992Z,24.70
2018-06-15T18:34:39.098Z,24.60
2018-06-15T18:37:08.197Z,24.50
2018-06-15T18:39:37.379Z,24.30
2018-06-15T18:42:06.677Z,24.30
2018-06-15T18:44:35.931Z,24.20
2018-06-15T18:47:05.083Z,24.00
2018-06-15T18:49:34.275Z,23.90
2018-06-15T18:52:03.380Z,23.80
2018-06-15T18:54:32.600Z,23.70
2018-06-15T18:57:01.730Z,23.70
2018-06-15T18:59:30.876Z,23.60
2018-06-15T19:02:00.100Z,23.50
2018-06-15T19:04:29.317Z,23.40
2018-06-15T19:06:58.508Z,23.30
2018-06-15T19:09:28.024Z,23.20
2018-06-15T19:11:57.187Z,23.10
2018-06-15T19:14:26.367Z,23.10
2018-06-15T19:16:55.561Z,23.00
2018-06-15T19:19:24.849Z,22.90
2018-06-15T19:21:53.994Z,22.90
2018-06-15T19:24:23.754Z,22.90
2018-06-15T19:26:52.940Z,22.80
2018-06-15T19:31:50.852Z,22.70
2018-06-15T19:34:19.974Z,22.60
2018-06-15T19:36:49.089Z,22.60
2018-06-15T19:39:19.343Z,22.50
2018-06-15T19:41:48.444Z,22.50
2018-06-15T19:44:17.568Z,22.40
2018-06-15T19:46:46.967Z,22.40
2018-06-15T19:49:16.148Z,22.40
2018-06-15T19:51:45.242Z,22.40
2018-06-15T19:54:14.320Z,22.30
2018-06-15T19:56:43.401Z,22.30
2018-06-15T19:59:12.623Z,22.30
2018-06-15T20:01:41.707Z,22.20
2018-06-15T20:04:10.980Z,22.20
2018-06-15T20:06:40.073Z,22.10
2018-06-15T20:09:09.398Z,22.10
2018-06-15T20:11:38.801Z,22.10
2018-06-15T20:14:08.009Z,22.10
2018-06-15T20:16:37.167Z,22.00
2018-06-15T20:19:06.310Z,22.00
2018-06-15T20:21:35.386Z,22.00
2018-06-15T20:24:04.958Z,21.90
2018-06-15T20:26:34.103Z,21.90
2018-06-15T20:29:03.348Z,21.90
2018-06-15T20:31:32.522Z,21.90
2018-06-15T20:34:01.648Z,21.80
2018-06-15T20:36:30.881Z,21.80
2018-06-15T20:38:59.996Z,21.70
2018-06-15T20:41:29.172Z,21.70
2018-06-15T20:43:58.511Z,21.70
2018-06-15T20:46:27.695Z,21.60
2018-06-15T20:48:56.794Z,21.60
2018-06-15T20:51:25.839Z,21.60
2018-06-15T20:53:54.919Z,21.50
2018-06-15T20:56:24.149Z,21.50
2018-06-15T20:58:53.367Z,21.50
2018-06-15T21:01:22.766Z,21.40
2018-06-15T21:03:52.021Z,21.40
2018-06-15T21:06:21.283Z,21.30
2018-06-15T21:08:50.369Z,21.30
2018-06-15T21:11:19.409Z,21.30
2018-06-15T21:13:48.512Z,21.20
2018-06-15T21:16:17.583Z,21.20
2018-06-15T21:18:46.647Z,21.10
2018-06-15T21:21:15.687Z,21.10
2018-06-15T21:23:45.098Z,21.10
2018-06-15T21:26:14.211Z,21.10
2018-06-15T21:28:43.286Z,21.10
2018-06-15T21:31:12.376Z,21.10
2018-06-15T21:33:41.475Z,21.10
2018-06-15T21:36:10.573Z,21.00
2018-06-15T21:38:39.696Z,21.00
2018-06-15T21:41:08.962Z,20.90
2018-06-15T21:43:38.005Z,20.90
2018-06-15T21:46:07.092Z,20.90
2018-06-15T21:48:36.144Z,20.80
2018-06-15T21:51:05.248Z,20.70
2018-06-15T21:53:34.315Z,20.70
2018-06-15T21:56:03.375Z,20.60
2018-06-15T21:58:32.462Z,20.60
2018-06-15T22:01:01.543Z,20.50
2018-06-15T22:03:30.795Z,20.50
2018-06-15T22:06:06.751Z,20.50
2018-06-15T22:08:35.824Z,20.40
2018-06-15T22:11:05.030Z,20.30
2018-06-15T22:13:34.088Z,20.30
2018-06-15T22:16:03.233Z,20.20
2018-06-15T22:18:32.355Z,20.20
2018-06-15T22:21:01.432Z,20.10
2018-06-15T22:23:30.527Z,20.00
2018-06-15T22:25:59.611Z,19.90
2018-06-15T22:28:28.745Z,19.80
2018-06-15T22:30:57.830Z,19.70
2018-06-15T22:33:27.001Z,19.70
2018-06-15T22:35:56.303Z,19.60
2018-06-15T22:38:25.466Z,19.50
2018-06-15T22:40:54.960Z,19.40
2018-06-15T22:45:52.880Z,19.30
2018-06-15T22:48:21.964Z,19.30
2018-06-15T22:50:51.118Z,19.20
2018-06-15T22:53:20.168Z,19.10
2018-06-15T22:55:49.279Z,19.00
2018-06-15T22:58:18.359Z,19.00
2018-06-15T23:00:47.612Z,18.90
2018-06-15T23:03:16.801Z,18.90
2018-06-15T23:05:45.879Z,18.80
2018-06-15T23:08:14.960Z,18.80
2018-06-15T23:10:44.007Z,18.80
2018-06-15T23:13:13.086Z,18.70
2018-06-15T23:15:42.123Z,18.70
2018-06-15T23:18:11.184Z,18.70
2018-06-15T23:20:40.263Z,18.60
2018-06-15T23:23:09.508Z,18.60
2018-06-15T23:25:38.595Z,18.60
2018-06-15T23:28:07.719Z,18.50
2018-06-15T23:30:36.784Z,18.50
2018-06-15T23:33:05.840Z,18.40
2018-06-15T23:35:34.898Z,18.40
2018-06-15T23:38:04.043Z,18.40
2018-06-15T23:45:30.532Z,18.20
2018-06-15T23:47:59.595Z,18.20
2018-06-15T23:50:28.705Z,18.20
2018-06-15T23:52:57.764Z,18.10
2018-06-15T23:55:26.861Z,18.10
2018-06-15T23:57:55.943Z,18.10
